sensor_id;sensor_type;location;lat;lon;timestamp;P1;durP1;ratioP1;P2;durP2;ratioP2
62149;SDS011;48134;53.586;10.610;2023-07-31T00:02:30;4.82;;;2.10;;
62149;SDS011;48134;53.586;10.610;2023-07-31T00:05:05;5.05;;;2.22;;
62149;SDS011;48134;53.586;10.610;2023-07-31T00:07:39;7.22;;;2.35;;
62149;SDS011;48134;53.586;10.610;2023-07-31T00:10:08;8.20;;;2.50;;
62149;SDS011;48134;53.586;10.610;2023-07-31T00:12:37;8.18;;;2.47;;
62149;SDS011;48134;53.586;10.610;2023-07-31T00:15:10;7.07;;;2.60;;
62149;SDS011;48134;53.586;10.610;2023-07-31T00:17:44;5.30;;;2.40;;
62149;SDS011;48134;53.586;10.610;2023-07-31T00:20:19;7.75;;;2.38;;
62149;SDS011;48134;53.586;10.610;2023-07-31T00:22:52;7.43;;;2.25;;
62149;SDS011;48134;53.586;10.610;2023-07-31T00:25:25;7.32;;;2.40;;
62149;SDS011;48134;53.586;10.610;2023-07-31T00:27:53;8.13;;;2.50;;
62149;SDS011;48134;53.586;10.610;2023-07-31T00:30:26;5.90;;;2.30;;
62149;SDS011;48134;53.586;10.610;2023-07-31T00:33:00;10.10;;;2.10;;
62149;SDS011;48134;53.586;10.610;2023-07-31T00:35:30;6.80;;;2.38;;
62149;SDS011;48134;53.586;10.610;2023-07-31T00:37:59;5.15;;;2.20;;
62149;SDS011;48134;53.586;10.610;2023-07-31T00:40:34;9.82;;;2.63;;
62149;SDS011;48134;53.586;10.610;2023-07-31T00:43:07;7.60;;;2.53;;
62149;SDS011;48134;53.586;10.610;2023-07-31T00:45:41;9.90;;;2.67;;
62149;SDS011;48134;53.586;10.610;2023-07-31T00:48:14;7.00;;;2.42;;
62149;SDS011;48134;53.586;10.610;2023-07-31T00:50:48;8.05;;;2.45;;
62149;SDS011;48134;53.586;10.610;2023-07-31T00:53:22;8.65;;;2.50;;
62149;SDS011;48134;53.586;10.610;2023-07-31T00:55:57;6.40;;;2.35;;
62149;SDS011;48134;53.586;10.610;2023-07-31T00:58:25;9.40;;;2.88;;
62149;SDS011;48134;53.586;10.610;2023-07-31T01:00:58;7.05;;;2.50;;
62149;SDS011;48134;53.586;10.610;2023-07-31T01:03:32;7.13;;;2.53;;
62149;SDS011;48134;53.586;10.610;2023-07-31T01:06:08;7.65;;;2.35;;
62149;SDS011;48134;53.586;10.610;2023-07-31T01:08:44;7.72;;;2.47;;
62149;SDS011;48134;53.586;10.610;2023-07-31T01:11:27;6.75;;;2.20;;
62149;SDS011;48134;53.586;10.610;2023-07-31T01:14:01;7.40;;;2.67;;
62149;SDS011;48134;53.586;10.610;2023-07-31T01:16:35;7.15;;;2.30;;
62149;SDS011;48134;53.586;10.610;2023-07-31T01:19:08;8.95;;;2.38;;
62149;SDS011;48134;53.586;10.610;2023-07-31T01:21:56;6.82;;;2.58;;
62149;SDS011;48134;53.586;10.610;2023-07-31T01:24:47;9.63;;;2.60;;
62149;SDS011;48134;53.586;10.610;2023-07-31T01:27:25;9.57;;;2.50;;
62149;SDS011;48134;53.586;10.610;2023-07-31T01:30:04;8.90;;;2.50;;
62149;SDS011;48134;53.586;10.610;2023-07-31T01:32:46;10.10;;;2.80;;
62149;SDS011;48134;53.586;10.610;2023-07-31T01:35:21;7.82;;;2.45;;
62149;SDS011;48134;53.586;10.610;2023-07-31T01:37:54;10.68;;;2.58;;
62149;SDS011;48134;53.586;10.610;2023-07-31T01:40:27;7.93;;;2.75;;
62149;SDS011;48134;53.586;10.610;2023-07-31T01:43:02;8.40;;;2.80;;
62149;SDS011;48134;53.586;10.610;2023-07-31T01:45:35;7.93;;;2.70;;
62149;SDS011;48134;53.586;10.610;2023-07-31T01:48:08;8.10;;;2.75;;
62149;SDS011;48134;53.586;10.610;2023-07-31T01:50:41;6.43;;;2.55;;
62149;SDS011;48134;53.586;10.610;2023-07-31T01:53:15;10.80;;;2.72;;
62149;SDS011;48134;53.586;10.610;2023-07-31T01:55:48;9.53;;;2.70;;
62149;SDS011;48134;53.586;10.610;2023-07-31T01:58:22;7.60;;;2.42;;
62149;SDS011;48134;53.586;10.610;2023-07-31T02:00:56;7.03;;;2.30;;
62149;SDS011;48134;53.586;10.610;2023-07-31T02:03:29;8.68;;;2.50;;
62149;SDS011;48134;53.586;10.610;2023-07-31T02:06:02;9.15;;;2.60;;
62149;SDS011;48134;53.586;10.610;2023-07-31T02:08:35;6.25;;;2.60;;
62149;SDS011;48134;53.586;10.610;2023-07-31T02:11:08;8.10;;;2.63;;
62149;SDS011;48134;53.586;10.610;2023-07-31T02:13:43;10.20;;;2.78;;
62149;SDS011;48134;53.586;10.610;2023-07-31T02:16:16;7.33;;;2.77;;
62149;SDS011;48134;53.586;10.610;2023-07-31T02:18:49;9.05;;;2.75;;
62149;SDS011;48134;53.586;10.610;2023-07-31T02:21:23;10.07;;;3.08;;
62149;SDS011;48134;53.586;10.610;2023-07-31T02:23:56;7.43;;;2.83;;
62149;SDS011;48134;53.586;10.610;2023-07-31T02:26:29;9.63;;;3.08;;
62149;SDS011;48134;53.586;10.610;2023-07-31T02:28:58;7.10;;;2.80;;
62149;SDS011;48134;53.586;10.610;2023-07-31T02:31:32;10.07;;;3.03;;
62149;SDS011;48134;53.586;10.610;2023-07-31T02:34:00;7.32;;;2.80;;
62149;SDS011;48134;53.586;10.610;2023-07-31T02:36:33;10.18;;;2.97;;
62149;SDS011;48134;53.586;10.610;2023-07-31T02:39:07;10.85;;;3.03;;
62149;SDS011;48134;53.586;10.610;2023-07-31T02:41:35;10.63;;;3.00;;
62149;SDS011;48134;53.586;10.610;2023-07-31T02:44:10;9.80;;;3.15;;
62149;SDS011;48134;53.586;10.610;2023-07-31T02:46:41;10.52;;;2.75;;
62149;SDS011;48134;53.586;10.610;2023-07-31T02:49:14;7.65;;;3.00;;
62149;SDS011;48134;53.586;10.610;2023-07-31T02:51:42;10.67;;;2.97;;
62149;SDS011;48134;53.586;10.610;2023-07-31T02:54:15;14.20;;;3.25;;
62149;SDS011;48134;53.586;10.610;2023-07-31T02:56:48;11.50;;;3.70;;
62149;SDS011;48134;53.586;10.610;2023-07-31T02:59:23;7.93;;;3.22;;
62149;SDS011;48134;53.586;10.610;2023-07-31T03:01:57;11.98;;;3.60;;
62149;SDS011;48134;53.586;10.610;2023-07-31T03:04:25;9.85;;;3.25;;
62149;SDS011;48134;53.586;10.610;2023-07-31T03:06:58;7.90;;;3.05;;
62149;SDS011;48134;53.586;10.610;2023-07-31T03:09:26;9.35;;;3.22;;
62149;SDS011;48134;53.586;10.610;2023-07-31T03:11:55;7.73;;;3.10;;
62149;SDS011;48134;53.586;10.610;2023-07-31T03:14:29;10.02;;;3.10;;
62149;SDS011;48134;53.586;10.610;2023-07-31T03:17:02;7.97;;;3.30;;
62149;SDS011;48134;53.586;10.610;2023-07-31T03:19:36;8.25;;;3.05;;
62149;SDS011;48134;53.586;10.610;2023-07-31T03:22:05;9.23;;;3.30;;
62149;SDS011;48134;53.586;10.610;2023-07-31T03:24:38;8.77;;;3.20;;
62149;SDS011;48134;53.586;10.610;2023-07-31T03:27:11;12.55;;;3.35;;
62149;SDS011;48134;53.586;10.610;2023-07-31T03:29:46;9.30;;;3.47;;
62149;SDS011;48134;53.586;10.610;2023-07-31T03:32:17;8.70;;;3.30;;
62149;SDS011;48134;53.586;10.610;2023-07-31T03:34:45;10.65;;;3.58;;
62149;SDS011;48134;53.586;10.610;2023-07-31T03:37:19;10.77;;;3.40;;
62149;SDS011;48134;53.586;10.610;2023-07-31T03:39:53;10.02;;;3.22;;
62149;SDS011;48134;53.586;10.610;2023-07-31T03:42:26;9.32;;;3.33;;
62149;SDS011;48134;53.586;10.610;2023-07-31T03:45:00;9.53;;;3.43;;
62149;SDS011;48134;53.586;10.610;2023-07-31T03:47:34;10.82;;;3.40;;
62149;SDS011;48134;53.586;10.610;2023-07-31T03:50:08;11.40;;;3.57;;
62149;SDS011;48134;53.586;10.610;2023-07-31T03:52:36;9.60;;;3.65;;
62149;SDS011;48134;53.586;10.610;2023-07-31T03:55:10;9.15;;;3.50;;
62149;SDS011;48134;53.586;10.610;2023-07-31T03:57:43;10.90;;;3.63;;
62149;SDS011;48134;53.586;10.610;2023-07-31T04:00:13;12.73;;;3.65;;
62149;SDS011;48134;53.586;10.610;2023-07-31T04:02:42;9.38;;;3.65;;
62149;SDS011;48134;53.586;10.610;2023-07-31T04:05:15;9.52;;;3.97;;
62149;SDS011;48134;53.586;10.610;2023-07-31T04:07:48;9.15;;;3.83;;
62149;SDS011;48134;53.586;10.610;2023-07-31T04:10:16;11.75;;;4.30;;
62149;SDS011;48134;53.586;10.610;2023-07-31T04:12:49;8.75;;;4.53;;
62149;SDS011;48134;53.586;10.610;2023-07-31T04:15:24;11.57;;;4.63;;
62149;SDS011;48134;53.586;10.610;2023-07-31T04:17:57;9.82;;;4.38;;
62149;SDS011;48134;53.586;10.610;2023-07-31T04:20:25;9.65;;;4.70;;
62149;SDS011;48134;53.586;10.610;2023-07-31T04:22:58;12.03;;;5.20;;
62149;SDS011;48134;53.586;10.610;2023-07-31T04:25:31;14.32;;;4.95;;
62149;SDS011;48134;53.586;10.610;2023-07-31T04:28:01;10.60;;;5.00;;
62149;SDS011;48134;53.586;10.610;2023-07-31T04:30:36;9.55;;;5.00;;
62149;SDS011;48134;53.586;10.610;2023-07-31T04:33:09;12.40;;;5.82;;
62149;SDS011;48134;53.586;10.610;2023-07-31T04:35:37;11.65;;;5.70;;
62149;SDS011;48134;53.586;10.610;2023-07-31T04:38:10;12.75;;;5.78;;
62149;SDS011;48134;53.586;10.610;2023-07-31T04:40:43;12.88;;;5.70;;
62149;SDS011;48134;53.586;10.610;2023-07-31T04:43:16;12.63;;;5.78;;
62149;SDS011;48134;53.586;10.610;2023-07-31T04:45:47;11.85;;;6.05;;
62149;SDS011;48134;53.586;10.610;2023-07-31T04:48:17;11.23;;;6.57;;
62149;SDS011;48134;53.586;10.610;2023-07-31T04:50:50;9.80;;;6.32;;
62149;SDS011;48134;53.586;10.610;2023-07-31T04:53:23;10.73;;;6.13;;
62149;SDS011;48134;53.586;10.610;2023-07-31T04:55:51;12.73;;;6.22;;
62149;SDS011;48134;53.586;10.610;2023-07-31T04:58:19;10.93;;;6.22;;
62149;SDS011;48134;53.586;10.610;2023-07-31T05:00:49;11.17;;;6.30;;
62149;SDS011;48134;53.586;10.610;2023-07-31T05:03:22;12.05;;;6.50;;
62149;SDS011;48134;53.586;10.610;2023-07-31T05:05:55;11.68;;;6.30;;
62149;SDS011;48134;53.586;10.610;2023-07-31T05:08:23;11.00;;;5.93;;
62149;SDS011;48134;53.586;10.610;2023-07-31T05:10:56;11.73;;;6.47;;
62149;SDS011;48134;53.586;10.610;2023-07-31T05:13:29;13.00;;;6.25;;
62149;SDS011;48134;53.586;10.610;2023-07-31T05:16:04;10.65;;;6.47;;
62149;SDS011;48134;53.586;10.610;2023-07-31T05:18:32;12.05;;;6.22;;
62149;SDS011;48134;53.586;10.610;2023-07-31T05:21:00;13.48;;;6.10;;
62149;SDS011;48134;53.586;10.610;2023-07-31T05:23:33;11.80;;;6.28;;
62149;SDS011;48134;53.586;10.610;2023-07-31T05:26:07;10.37;;;5.90;;
62149;SDS011;48134;53.586;10.610;2023-07-31T05:28:41;10.68;;;5.95;;
62149;SDS011;48134;53.586;10.610;2023-07-31T05:31:15;11.43;;;5.80;;
62149;SDS011;48134;53.586;10.610;2023-07-31T05:33:49;8.60;;;5.17;;
62149;SDS011;48134;53.586;10.610;2023-07-31T05:36:22;9.48;;;5.82;;
62149;SDS011;48134;53.586;10.610;2023-07-31T05:38:55;10.38;;;5.70;;
62149;SDS011;48134;53.586;10.610;2023-07-31T05:41:28;10.20;;;5.72;;
62149;SDS011;48134;53.586;10.610;2023-07-31T05:43:57;10.25;;;5.72;;
62149;SDS011;48134;53.586;10.610;2023-07-31T05:46:31;8.90;;;5.50;;
62149;SDS011;48134;53.586;10.610;2023-07-31T05:49:04;10.82;;;5.90;;
62149;SDS011;48134;53.586;10.610;2023-07-31T05:51:37;7.93;;;4.78;;
62149;SDS011;48134;53.586;10.610;2023-07-31T05:54:10;9.50;;;5.25;;
62149;SDS011;48134;53.586;10.610;2023-07-31T05:56:39;8.68;;;4.97;;
62149;SDS011;48134;53.586;10.610;2023-07-31T05:59:12;8.95;;;4.82;;
62149;SDS011;48134;53.586;10.610;2023-07-31T06:01:42;10.85;;;5.28;;
62149;SDS011;48134;53.586;10.610;2023-07-31T06:04:10;10.05;;;4.35;;
62149;SDS011;48134;53.586;10.610;2023-07-31T06:06:38;7.82;;;4.47;;
62149;SDS011;48134;53.586;10.610;2023-07-31T06:09:07;7.75;;;4.53;;
62149;SDS011;48134;53.586;10.610;2023-07-31T06:11:40;9.23;;;4.70;;
62149;SDS011;48134;53.586;10.610;2023-07-31T06:14:13;8.18;;;4.70;;
62149;SDS011;48134;53.586;10.610;2023-07-31T06:16:48;7.93;;;4.70;;
62149;SDS011;48134;53.586;10.610;2023-07-31T06:19:16;7.20;;;4.50;;
62149;SDS011;48134;53.586;10.610;2023-07-31T06:21:49;9.85;;;4.60;;
62149;SDS011;48134;53.586;10.610;2023-07-31T06:24:17;12.57;;;4.60;;
62149;SDS011;48134;53.586;10.610;2023-07-31T06:26:47;8.23;;;4.30;;
62149;SDS011;48134;53.586;10.610;2023-07-31T06:29:20;8.00;;;4.38;;
62149;SDS011;48134;53.586;10.610;2023-07-31T06:31:55;6.90;;;4.10;;
62149;SDS011;48134;53.586;10.610;2023-07-31T06:34:28;7.65;;;4.28;;
62149;SDS011;48134;53.586;10.610;2023-07-31T06:36:56;7.03;;;4.32;;
62149;SDS011;48134;53.586;10.610;2023-07-31T06:39:29;7.55;;;4.10;;
62149;SDS011;48134;53.586;10.610;2023-07-31T06:42:03;7.53;;;4.00;;
62149;SDS011;48134;53.586;10.610;2023-07-31T06:44:36;7.70;;;3.92;;
62149;SDS011;48134;53.586;10.610;2023-07-31T06:47:11;7.18;;;3.90;;
62149;SDS011;48134;53.586;10.610;2023-07-31T06:49:44;9.20;;;4.60;;
62149;SDS011;48134;53.586;10.610;2023-07-31T06:52:12;6.00;;;3.88;;
62149;SDS011;48134;53.586;10.610;2023-07-31T06:54:40;6.75;;;3.75;;
62149;SDS011;48134;53.586;10.610;2023-07-31T06:57:14;7.05;;;3.90;;
62149;SDS011;48134;53.586;10.610;2023-07-31T06:59:47;6.33;;;3.70;;
62149;SDS011;48134;53.586;10.610;2023-07-31T07:02:21;6.90;;;3.40;;
62149;SDS011;48134;53.586;10.610;2023-07-31T07:04:49;8.10;;;3.50;;
62149;SDS011;48134;53.586;10.610;2023-07-31T07:07:22;5.55;;;3.33;;
62149;SDS011;48134;53.586;10.610;2023-07-31T07:09:55;6.40;;;3.30;;
62149;SDS011;48134;53.586;10.610;2023-07-31T07:12:31;5.38;;;3.20;;
62149;SDS011;48134;53.586;10.610;2023-07-31T07:15:05;6.45;;;3.20;;
62149;SDS011;48134;53.586;10.610;2023-07-31T07:17:40;5.90;;;3.10;;
62149;SDS011;48134;53.586;10.610;2023-07-31T07:20:13;5.10;;;3.10;;
62149;SDS011;48134;53.586;10.610;2023-07-31T07:22:47;4.90;;;2.90;;
62149;SDS011;48134;53.586;10.610;2023-07-31T07:25:20;5.90;;;3.00;;
62149;SDS011;48134;53.586;10.610;2023-07-31T07:27:54;5.90;;;3.00;;
62149;SDS011;48134;53.586;10.610;2023-07-31T07:30:27;5.80;;;2.92;;
62149;SDS011;48134;53.586;10.610;2023-07-31T07:33:01;5.28;;;2.90;;
62149;SDS011;48134;53.586;10.610;2023-07-31T07:35:35;5.00;;;2.80;;
62149;SDS011;48134;53.586;10.610;2023-07-31T07:38:08;5.53;;;2.80;;
62149;SDS011;48134;53.586;10.610;2023-07-31T07:40:41;6.32;;;3.00;;
62149;SDS011;48134;53.586;10.610;2023-07-31T07:43:15;4.60;;;2.60;;
62149;SDS011;48134;53.586;10.610;2023-07-31T07:45:43;5.50;;;2.70;;
62149;SDS011;48134;53.586;10.610;2023-07-31T07:48:17;4.65;;;2.80;;
62149;SDS011;48134;53.586;10.610;2023-07-31T07:50:50;4.32;;;2.65;;
62149;SDS011;48134;53.586;10.610;2023-07-31T07:53:24;5.03;;;2.70;;
62149;SDS011;48134;53.586;10.610;2023-07-31T07:55:57;5.80;;;2.80;;
62149;SDS011;48134;53.586;10.610;2023-07-31T07:58:25;4.43;;;2.60;;
62149;SDS011;48134;53.586;10.610;2023-07-31T08:00:58;4.40;;;2.40;;
62149;SDS011;48134;53.586;10.610;2023-07-31T08:03:28;3.93;;;2.27;;
62149;SDS011;48134;53.586;10.610;2023-07-31T08:06:01;4.47;;;2.40;;
62149;SDS011;48134;53.586;10.610;2023-07-31T08:08:34;4.18;;;2.55;;
62149;SDS011;48134;53.586;10.610;2023-07-31T08:11:07;4.93;;;2.45;;
62149;SDS011;48134;53.586;10.610;2023-07-31T08:13:40;4.28;;;2.50;;
62149;SDS011;48134;53.586;10.610;2023-07-31T08:16:14;4.95;;;2.38;;
62149;SDS011;48134;53.586;10.610;2023-07-31T08:18:48;5.00;;;2.60;;
62149;SDS011;48134;53.586;10.610;2023-07-31T08:21:21;4.87;;;2.70;;
62149;SDS011;48134;53.586;10.610;2023-07-31T08:23:55;4.28;;;2.40;;
62149;SDS011;48134;53.586;10.610;2023-07-31T08:26:23;4.70;;;2.40;;
62149;SDS011;48134;53.586;10.610;2023-07-31T08:28:56;4.03;;;2.40;;
62149;SDS011;48134;53.586;10.610;2023-07-31T08:31:30;3.50;;;2.17;;
62149;SDS011;48134;53.586;10.610;2023-07-31T08:34:05;3.40;;;2.22;;
62149;SDS011;48134;53.586;10.610;2023-07-31T08:36:38;4.00;;;2.30;;
62149;SDS011;48134;53.586;10.610;2023-07-31T08:39:11;4.63;;;2.50;;
62149;SDS011;48134;53.586;10.610;2023-07-31T08:41:44;3.53;;;2.30;;
62149;SDS011;48134;53.586;10.610;2023-07-31T08:44:17;3.57;;;2.10;;
62149;SDS011;48134;53.586;10.610;2023-07-31T08:46:50;3.30;;;2.10;;
62149;SDS011;48134;53.586;10.610;2023-07-31T08:49:25;3.25;;;2.10;;
62149;SDS011;48134;53.586;10.610;2023-07-31T08:51:54;3.22;;;1.95;;
62149;SDS011;48134;53.586;10.610;2023-07-31T08:54:24;3.45;;;1.90;;
62149;SDS011;48134;53.586;10.610;2023-07-31T08:57:00;2.85;;;1.83;;
62149;SDS011;48134;53.586;10.610;2023-07-31T08:59:34;3.33;;;1.77;;
62149;SDS011;48134;53.586;10.610;2023-07-31T09:02:05;4.40;;;2.00;;
62149;SDS011;48134;53.586;10.610;2023-07-31T09:04:41;2.80;;;1.80;;
62149;SDS011;48134;53.586;10.610;2023-07-31T09:07:09;2.72;;;1.80;;
62149;SDS011;48134;53.586;10.610;2023-07-31T09:09:45;2.72;;;1.63;;
62149;SDS011;48134;53.586;10.610;2023-07-31T09:12:18;3.38;;;1.60;;
62149;SDS011;48134;53.586;10.610;2023-07-31T09:14:47;2.53;;;1.70;;
62149;SDS011;48134;53.586;10.610;2023-07-31T09:17:28;2.20;;;1.50;;
62149;SDS011;48134;53.586;10.610;2023-07-31T09:20:16;2.47;;;1.50;;
62149;SDS011;48134;53.586;10.610;2023-07-31T09:22:50;2.60;;;1.48;;
62149;SDS011;48134;53.586;10.610;2023-07-31T09:25:25;2.42;;;1.50;;
62149;SDS011;48134;53.586;10.610;2023-07-31T09:27:59;4.05;;;1.35;;
62149;SDS011;48134;53.586;10.610;2023-07-31T09:30:28;2.58;;;1.10;;
62149;SDS011;48134;53.586;10.610;2023-07-31T09:33:02;2.28;;;1.30;;
62149;SDS011;48134;53.586;10.610;2023-07-31T09:35:34;1.90;;;1.30;;
62149;SDS011;48134;53.586;10.610;2023-07-31T09:38:10;2.42;;;1.20;;
62149;SDS011;48134;53.586;10.610;2023-07-31T09:40:44;1.90;;;1.20;;
62149;SDS011;48134;53.586;10.610;2023-07-31T09:43:19;1.42;;;1.00;;
62149;SDS011;48134;53.586;10.610;2023-07-31T09:45:52;2.17;;;1.00;;
62149;SDS011;48134;53.586;10.610;2023-07-31T09:48:23;1.10;;;0.80;;
62149;SDS011;48134;53.586;10.610;2023-07-31T09:50:55;1.80;;;0.80;;
62149;SDS011;48134;53.586;10.610;2023-07-31T09:53:28;1.52;;;0.80;;
62149;SDS011;48134;53.586;10.610;2023-07-31T09:55:58;0.82;;;0.70;;
62149;SDS011;48134;53.586;10.610;2023-07-31T09:58:33;1.70;;;0.80;;
62149;SDS011;48134;53.586;10.610;2023-07-31T10:01:02;0.88;;;0.70;;
62149;SDS011;48134;53.586;10.610;2023-07-31T10:03:31;0.90;;;0.70;;
62149;SDS011;48134;53.586;10.610;2023-07-31T10:06:06;1.40;;;0.70;;
62149;SDS011;48134;53.586;10.610;2023-07-31T10:08:37;1.30;;;0.60;;
62149;SDS011;48134;53.586;10.610;2023-07-31T10:11:06;0.70;;;0.63;;
62149;SDS011;48134;53.586;10.610;2023-07-31T10:13:42;0.90;;;0.60;;
62149;SDS011;48134;53.586;10.610;2023-07-31T10:16:16;4.30;;;0.50;;
62149;SDS011;48134;53.586;10.610;2023-07-31T10:18:47;0.50;;;0.50;;
62149;SDS011;48134;53.586;10.610;2023-07-31T10:21:17;2.40;;;0.50;;
62149;SDS011;48134;53.586;10.610;2023-07-31T10:23:45;2.40;;;0.50;;
62149;SDS011;48134;53.586;10.610;2023-07-31T10:26:20;0.52;;;0.50;;
62149;SDS011;48134;53.586;10.610;2023-07-31T10:28:56;0.40;;;0.40;;
62149;SDS011;48134;53.586;10.610;2023-07-31T10:31:31;1.40;;;0.43;;
62149;SDS011;48134;53.586;10.610;2023-07-31T10:34:00;1.90;;;0.50;;
62149;SDS011;48134;53.586;10.610;2023-07-31T10:36:36;0.57;;;0.50;;
62149;SDS011;48134;53.586;10.610;2023-07-31T10:42:09;0.40;;;0.40;;
62149;SDS011;48134;53.586;10.610;2023-07-31T10:44:43;0.50;;;0.35;;
62149;SDS011;48134;53.586;10.610;2023-07-31T10:47:17;0.70;;;0.40;;
62149;SDS011;48134;53.586;10.610;2023-07-31T10:49:51;0.77;;;0.60;;
62149;SDS011;48134;53.586;10.610;2023-07-31T10:52:24;0.90;;;0.60;;
62149;SDS011;48134;53.586;10.610;2023-07-31T10:55:14;11.05;;;5.00;;
62149;SDS011;48134;53.586;10.610;2023-07-31T10:57:48;9.27;;;4.13;;
62149;SDS011;48134;53.586;10.610;2023-07-31T11:00:22;7.78;;;3.17;;
62149;SDS011;48134;53.586;10.610;2023-07-31T11:02:59;11.25;;;4.30;;
62149;SDS011;48134;53.586;10.610;2023-07-31T11:05:41;13.00;;;4.60;;
62149;SDS011;48134;53.586;10.610;2023-07-31T11:08:27;12.77;;;5.53;;
62149;SDS011;48134;53.586;10.610;2023-07-31T11:11:05;14.05;;;5.88;;
62149;SDS011;48134;53.586;10.610;2023-07-31T11:13:40;14.48;;;5.85;;
62149;SDS011;48134;53.586;10.610;2023-07-31T11:16:09;14.82;;;6.10;;
62149;SDS011;48134;53.586;10.610;2023-07-31T11:18:44;16.92;;;6.18;;
62149;SDS011;48134;53.586;10.610;2023-07-31T11:21:14;18.35;;;6.18;;
62149;SDS011;48134;53.586;10.610;2023-07-31T11:23:50;15.50;;;6.90;;
62149;SDS011;48134;53.586;10.610;2023-07-31T11:26:24;18.40;;;7.05;;
62149;SDS011;48134;53.586;10.610;2023-07-31T11:28:57;18.85;;;7.38;;
62149;SDS011;48134;53.586;10.610;2023-07-31T11:31:26;18.00;;;7.97;;
62149;SDS011;48134;53.586;10.610;2023-07-31T11:34:03;18.02;;;9.10;;
62149;SDS011;48134;53.586;10.610;2023-07-31T11:36:32;21.98;;;10.15;;
62149;SDS011;48134;53.586;10.610;2023-07-31T11:39:05;22.40;;;9.40;;
62149;SDS011;48134;53.586;10.610;2023-07-31T11:41:35;18.38;;;9.10;;
62149;SDS011;48134;53.586;10.610;2023-07-31T11:44:08;15.75;;;8.10;;
62149;SDS011;48134;53.586;10.610;2023-07-31T11:46:36;15.90;;;7.22;;
62149;SDS011;48134;53.586;10.610;2023-07-31T11:49:06;14.13;;;5.93;;
62149;SDS011;48134;53.586;10.610;2023-07-31T11:51:39;11.23;;;5.20;;
62149;SDS011;48134;53.586;10.610;2023-07-31T11:54:09;12.90;;;4.97;;
62149;SDS011;48134;53.586;10.610;2023-07-31T11:56:39;10.75;;;4.85;;
62149;SDS011;48134;53.586;10.610;2023-07-31T11:59:12;11.90;;;4.30;;
62149;SDS011;48134;53.586;10.610;2023-07-31T12:01:41;10.00;;;4.10;;
62149;SDS011;48134;53.586;10.610;2023-07-31T12:04:14;10.10;;;4.30;;
62149;SDS011;48134;53.586;10.610;2023-07-31T12:06:43;9.18;;;3.72;;
62149;SDS011;48134;53.586;10.610;2023-07-31T12:09:18;8.70;;;3.90;;
62149;SDS011;48134;53.586;10.610;2023-07-31T12:11:51;9.70;;;3.80;;
62149;SDS011;48134;53.586;10.610;2023-07-31T12:14:25;8.57;;;3.60;;
62149;SDS011;48134;53.586;10.610;2023-07-31T12:16:55;8.77;;;3.67;;
62149;SDS011;48134;53.586;10.610;2023-07-31T12:19:29;7.65;;;3.30;;
62149;SDS011;48134;53.586;10.610;2023-07-31T12:22:10;7.72;;;3.58;;
62149;SDS011;48134;53.586;10.610;2023-07-31T12:24:41;7.85;;;3.50;;
62149;SDS011;48134;53.586;10.610;2023-07-31T12:27:16;7.50;;;3.83;;
62149;SDS011;48134;53.586;10.610;2023-07-31T12:29:50;11.23;;;4.20;;
62149;SDS011;48134;53.586;10.610;2023-07-31T12:32:19;9.93;;;4.32;;
62149;SDS011;48134;53.586;10.610;2023-07-31T12:34:48;8.60;;;4.07;;
62149;SDS011;48134;53.586;10.610;2023-07-31T12:37:21;8.80;;;4.10;;
62149;SDS011;48134;53.586;10.610;2023-07-31T12:39:51;8.13;;;3.67;;
62149;SDS011;48134;53.586;10.610;2023-07-31T12:42:19;7.65;;;3.63;;
62149;SDS011;48134;53.586;10.610;2023-07-31T12:44:52;8.48;;;4.00;;
62149;SDS011;48134;53.586;10.610;2023-07-31T12:47:25;12.10;;;5.53;;
62149;SDS011;48134;53.586;10.610;2023-07-31T12:49:58;14.87;;;6.63;;
62149;SDS011;48134;53.586;10.610;2023-07-31T12:52:32;23.30;;;12.43;;
62149;SDS011;48134;53.586;10.610;2023-07-31T12:55:07;23.20;;;12.02;;
62149;SDS011;48134;53.586;10.610;2023-07-31T12:57:37;27.38;;;13.75;;
62149;SDS011;48134;53.586;10.610;2023-07-31T13:00:12;25.83;;;13.18;;
62149;SDS011;48134;53.586;10.610;2023-07-31T13:02:46;13.95;;;6.47;;
62149;SDS011;48134;53.586;10.610;2023-07-31T13:05:19;10.52;;;5.30;;
62149;SDS011;48134;53.586;10.610;2023-07-31T13:07:47;9.02;;;4.28;;
62149;SDS011;48134;53.586;10.610;2023-07-31T13:10:22;8.45;;;3.38;;
62149;SDS011;48134;53.586;10.610;2023-07-31T13:12:58;5.22;;;2.30;;
62149;SDS011;48134;53.586;10.610;2023-07-31T13:15:26;5.50;;;2.28;;
62149;SDS011;48134;53.586;10.610;2023-07-31T13:17:59;4.60;;;1.90;;
62149;SDS011;48134;53.586;10.610;2023-07-31T13:20:27;2.42;;;1.40;;
62149;SDS011;48134;53.586;10.610;2023-07-31T13:23:01;1.48;;;0.90;;
62149;SDS011;48134;53.586;10.610;2023-07-31T13:25:30;1.52;;;0.70;;
62149;SDS011;48134;53.586;10.610;2023-07-31T13:28:03;0.82;;;0.63;;
62149;SDS011;48134;53.586;10.610;2023-07-31T13:30:38;1.00;;;0.73;;
62149;SDS011;48134;53.586;10.610;2023-07-31T13:33:11;1.42;;;0.75;;
62149;SDS011;48134;53.586;10.610;2023-07-31T13:35:44;3.30;;;0.60;;
62149;SDS011;48134;53.586;10.610;2023-07-31T13:38:13;1.65;;;0.50;;
62149;SDS011;48134;53.586;10.610;2023-07-31T13:40:42;0.60;;;0.50;;
62149;SDS011;48134;53.586;10.610;2023-07-31T13:43:15;0.70;;;0.50;;
62149;SDS011;48134;53.586;10.610;2023-07-31T13:45:48;1.85;;;0.63;;
62149;SDS011;48134;53.586;10.610;2023-07-31T13:48:22;1.13;;;0.60;;
62149;SDS011;48134;53.586;10.610;2023-07-31T13:50:50;0.80;;;0.50;;
62149;SDS011;48134;53.586;10.610;2023-07-31T13:53:23;0.60;;;0.60;;
62149;SDS011;48134;53.586;10.610;2023-07-31T13:55:52;1.40;;;0.60;;
62149;SDS011;48134;53.586;10.610;2023-07-31T13:58:25;1.15;;;0.70;;
62149;SDS011;48134;53.586;10.610;2023-07-31T14:00:59;2.00;;;0.77;;
62149;SDS011;48134;53.586;10.610;2023-07-31T14:03:32;1.00;;;0.60;;
62149;SDS011;48134;53.586;10.610;2023-07-31T14:06:00;1.10;;;0.52;;
62149;SDS011;48134;53.586;10.610;2023-07-31T14:08:33;0.40;;;0.40;;
62149;SDS011;48134;53.586;10.610;2023-07-31T14:11:08;0.55;;;0.50;;
62149;SDS011;48134;53.586;10.610;2023-07-31T14:13:41;0.68;;;0.50;;
62149;SDS011;48134;53.586;10.610;2023-07-31T14:16:14;0.40;;;0.40;;
62149;SDS011;48134;53.586;10.610;2023-07-31T14:18:42;0.80;;;0.60;;
62149;SDS011;48134;53.586;10.610;2023-07-31T14:21:17;3.75;;;1.83;;
62149;SDS011;48134;53.586;10.610;2023-07-31T14:23:51;1.42;;;0.68;;
62149;SDS011;48134;53.586;10.610;2023-07-31T14:26:25;0.60;;;0.50;;
62149;SDS011;48134;53.586;10.610;2023-07-31T14:28:54;2.20;;;0.60;;
62149;SDS011;48134;53.586;10.610;2023-07-31T14:31:22;0.90;;;0.60;;
62149;SDS011;48134;53.586;10.610;2023-07-31T14:33:50;2.00;;;0.70;;
62149;SDS011;48134;53.586;10.610;2023-07-31T14:36:23;1.83;;;0.55;;
62149;SDS011;48134;53.586;10.610;2023-07-31T14:38:56;1.08;;;0.70;;
62149;SDS011;48134;53.586;10.610;2023-07-31T14:41:31;0.70;;;0.63;;
62149;SDS011;48134;53.586;10.610;2023-07-31T14:44:04;1.90;;;0.77;;
62149;SDS011;48134;53.586;10.610;2023-07-31T14:46:32;0.60;;;0.60;;
62149;SDS011;48134;53.586;10.610;2023-07-31T14:49:01;1.35;;;0.60;;
62149;SDS011;48134;53.586;10.610;2023-07-31T14:51:29;1.93;;;0.77;;
62149;SDS011;48134;53.586;10.610;2023-07-31T14:54:02;1.90;;;0.70;;
62149;SDS011;48134;53.586;10.610;2023-07-31T14:56:37;1.88;;;1.13;;
62149;SDS011;48134;53.586;10.610;2023-07-31T14:59:10;3.20;;;0.85;;
62149;SDS011;48134;53.586;10.610;2023-07-31T15:01:38;6.28;;;0.93;;
62149;SDS011;48134;53.586;10.610;2023-07-31T15:04:07;3.00;;;1.00;;
62149;SDS011;48134;53.586;10.610;2023-07-31T15:06:40;1.88;;;0.80;;